Private Wetterstation Sandau
Wetterdaten: Woche 11.06.12 - 17.06.12 (KW24)
Datum Zeit Temp. A. Feuchte A. Luftdruck Regen Wind Richtung Taupunkt Windchill
11.06.2012 00:00 15,4 C 62 % 1008,6 hPa 0,0 l/m 0,7 km/h (0 Bft) O-NO 8,2 C 15,4 C
11.06.2012 01:00 14,6 C 65 % 1008,1 hPa 0,0 l/m 0,5 km/h (0 Bft) N-NO 8,0 C 14,6 C
11.06.2012 02:00 14,5 C 65 % 1007,7 hPa 0,0 l/m 0,0 km/h (0 Bft) N 8,1 C 14,5 C
11.06.2012 03:00 13,6 C 68 % 1007,7 hPa 0,0 l/m 0,3 km/h (0 Bft) W-NW 7,8 C 13,6 C
11.06.2012 04:00 12,2 C 73 % 1007,3 hPa 0,0 l/m 0,0 km/h (0 Bft) N 7,4 C 12,2 C
11.06.2012 05:00 12,5 C 74 % 1007,3 hPa 0,0 l/m 0,0 km/h (0 Bft) N-NO 7,9 C 12,5 C
11.06.2012 06:00 13,6 C 73 % 1007,2 hPa 0,0 l/m 1,1 km/h (1 Bft) O 8,8 C 13,6 C
11.06.2012 07:00 15,9 C 69 % 1007,0 hPa 0,0 l/m 2,1 km/h (1 Bft) O-NO 10,1 C 15,9 C
11.06.2012 08:00 17,9 C 63 % 1006,8 hPa 0,0 l/m 2,3 km/h (1 Bft) O-SO 10,7 C 17,9 C
11.06.2012 09:00 19,9 C 55 % 1006,6 hPa 0,0 l/m 2,2 km/h (1 Bft) O-SO 10,6 C 19,9 C
11.06.2012 10:00 20,9 C 52 % 1006,4 hPa 0,0 l/m 2,7 km/h (1 Bft) SO 10,5 C 20,9 C
11.06.2012 11:00 20,8 C 49 % 1006,1 hPa 0,0 l/m 3,0 km/h (1 Bft) O 9,8 C 20,8 C
11.06.2012 12:00 20,7 C 48 % 1005,7 hPa 0,0 l/m 2,7 km/h (1 Bft) O 9,1 C 20,7 C
11.06.2012 13:00 20,7 C 46 % 1005,2 hPa 0,0 l/m 2,9 km/h (1 Bft) O 8,7 C 20,7 C
11.06.2012 14:00 20,9 C 46 % 1005,0 hPa 0,0 l/m 1,9 km/h (1 Bft) O 8,7 C 20,9 C
11.06.2012 15:00 21,8 C 43 % 1004,6 hPa 0,0 l/m 1,8 km/h (1 Bft) O 8,6 C 21,8 C
11.06.2012 16:00 21,6 C 42 % 1004,3 hPa 0,0 l/m 1,8 km/h (1 Bft) O 8,1 C 21,6 C
11.06.2012 17:00 21,4 C 43 % 1004,1 hPa 0,0 l/m 2,7 km/h (1 Bft) O 8,3 C 21,4 C
11.06.2012 18:00 20,8 C 45 % 1004,0 hPa 0,0 l/m 2,5 km/h (1 Bft) O 8,5 C 20,8 C
11.06.2012 19:00 20,0 C 49 % 1003,8 hPa 0,0 l/m 0,4 km/h (0 Bft) O 8,9 C 20,0 C
11.06.2012 20:00 19,2 C 51 % 1003,9 hPa 0,0 l/m 0,8 km/h (0 Bft) O-NO 9,0 C 19,2 C
11.06.2012 21:00 18,5 C 54 % 1003,8 hPa 0,0 l/m 3,0 km/h (1 Bft) O-NO 9,0 C 18,5 C
11.06.2012 22:00 17,9 C 57 % 1003,6 hPa 0,0 l/m 2,4 km/h (1 Bft) O-NO 9,1 C 17,9 C
11.06.2012 23:00 17,4 C 60 % 1003,6 hPa 0,0 l/m 2,5 km/h (1 Bft) O 9,5 C 17,4 C
12.06.2012 00:00 16,8 C 63 % 1003,5 hPa 0,0 l/m 2,4 km/h (1 Bft) O-NO 9,8 C 16,8 C
12.06.2012 01:00 16,8 C 64 % 1003,1 hPa 0,0 l/m 1,7 km/h (1 Bft) SO 9,9 C 16,8 C
12.06.2012 02:00 16,4 C 67 % 1002,9 hPa 0,0 l/m 1,3 km/h (1 Bft) S-SO 10,2 C 16,4 C
12.06.2012 03:00 16,0 C 69 % 1002,8 hPa 0,0 l/m 1,0 km/h (0 Bft) O-NO 10,4 C 16,0 C
12.06.2012 04:00 14,9 C 76 % 1002,7 hPa 0,0 l/m 2,9 km/h (1 Bft) O-NO 10,6 C 14,9 C
12.06.2012 05:00 14,7 C 80 % 1002,5 hPa 0,5 l/m 1,4 km/h (1 Bft) O 11,2 C 14,7 C
12.06.2012 06:00 14,8 C 81 % 1002,6 hPa 0,0 l/m 3,0 km/h (1 Bft) O 11,5 C 14,8 C
12.06.2012 07:00 15,0 C 82 % 1002,7 hPa 0,0 l/m 4,1 km/h (1 Bft) O-NO 12,0 C 15,0 C
12.06.2012 08:00 17,4 C 76 % 1002,7 hPa 0,0 l/m 1,3 km/h (1 Bft) O 13,2 C 17,4 C
12.06.2012 09:00 18,6 C 69 % 1002,7 hPa 0,0 l/m 2,9 km/h (1 Bft) S-SO 12,9 C 18,6 C
12.06.2012 10:00 18,7 C 67 % 1002,7 hPa 0,0 l/m 2,8 km/h (1 Bft) SO 12,6 C 18,7 C
12.06.2012 11:00 19,0 C 68 % 1002,8 hPa 5,7 l/m 7,1 km/h (2 Bft) O 12,9 C 19,0 C
12.06.2012 12:00 17,5 C 77 % 1002,8 hPa 0,5 l/m 7,5 km/h (2 Bft) O 13,4 C 17,5 C
12.06.2012 13:00 17,3 C 76 % 1003,1 hPa 15,5 l/m 3,7 km/h (1 Bft) O-NO 13,1 C 17,3 C
12.06.2012 14:00 19,8 C 67 % 1002,8 hPa 0,0 l/m 4,3 km/h (1 Bft) O 13,6 C 19,8 C
12.06.2012 15:00 21,3 C 63 % 1002,8 hPa 0,0 l/m 2,7 km/h (1 Bft) NO 13,9 C 21,3 C
12.06.2012 16:00 20,9 C 61 % 1002,9 hPa 0,0 l/m 2,5 km/h (1 Bft) O-SO 13,0 C 20,9 C
12.06.2012 17:00 19,5 C 67 % 1003,2 hPa 11,9 l/m 2,7 km/h (1 Bft) W-SW 13,2 C 19,5 C
12.06.2012 18:00 18,3 C 74 % 1003,3 hPa 2,1 l/m 3,4 km/h (1 Bft) N-NO 13,6 C 18,3 C
12.06.2012 19:00 18,3 C 76 % 1003,5 hPa 0,0 l/m 2,7 km/h (1 Bft) N-NO 13,9 C 18,3 C
12.06.2012 20:00 18,3 C 74 % 1003,7 hPa 0,0 l/m 1,6 km/h (1 Bft) N 13,6 C 18,3 C
12.06.2012 21:00 17,1 C 77 % 1004,4 hPa 0,0 l/m 1,4 km/h (1 Bft) NW 13,1 C 17,1 C
12.06.2012 22:00 15,5 C 81 % 1005,0 hPa 0,0 l/m 2,3 km/h (1 Bft) N-NO 12,2 C 15,5 C
12.06.2012 23:00 14,9 C 83 % 1005,3 hPa 0,0 l/m 1,4 km/h (1 Bft) NW 12,0 C 14,9 C
13.06.2012 00:00 14,8 C 83 % 1005,7 hPa 0,0 l/m 2,5 km/h (1 Bft) W-NW 12,0 C 14,8 C
13.06.2012 01:00 14,2 C 83 % 1005,9 hPa 0,0 l/m 3,5 km/h (1 Bft) W-NW 11,4 C 14,2 C
13.06.2012 02:00 13,7 C 84 % 1006,1 hPa 0,0 l/m 3,5 km/h (1 Bft) W-NW 11,0 C 13,7 C
13.06.2012 03:00 13,0 C 85 % 1006,1 hPa 0,0 l/m 4,2 km/h (1 Bft) NW 10,5 C 13,0 C
13.06.2012 04:00 12,4 C 85 % 1006,8 hPa 0,0 l/m 4,2 km/h (1 Bft) W-NW 9,8 C 12,4 C
13.06.2012 05:00 12,4 C 86 % 1007,4 hPa 0,0 l/m 5,6 km/h (1 Bft) W 10,1 C 12,4 C
13.06.2012 06:00 13,2 C 85 % 1008,0 hPa 0,0 l/m 9,3 km/h (2 Bft) NW 10,8 C 13,2 C
13.06.2012 07:00 13,3 C 85 % 1008,8 hPa 0,0 l/m 8,8 km/h (2 Bft) NW 10,8 C 13,3 C
13.06.2012 08:00 13,6 C 84 % 1009,6 hPa 0,0 l/m 8,7 km/h (2 Bft) W-NW 11,1 C 13,6 C
13.06.2012 09:00 14,6 C 81 % 1010,2 hPa 0,0 l/m 8,3 km/h (2 Bft) NW 11,4 C 14,6 C
13.06.2012 10:00 15,2 C 79 % 1010,8 hPa 0,0 l/m 8,4 km/h (2 Bft) W 11,5 C 15,2 C
13.06.2012 11:00 16,7 C 73 % 1011,4 hPa 0,0 l/m 6,9 km/h (2 Bft) NW 11,9 C 16,7 C
13.06.2012 12:00 18,4 C 68 % 1011,8 hPa 0,0 l/m 8,7 km/h (2 Bft) W 12,3 C 18,4 C
13.06.2012 13:00 19,1 C 64 % 1012,3 hPa 0,0 l/m 8,6 km/h (2 Bft) W-NW 12,1 C 19,1 C
13.06.2012 14:00 19,0 C 62 % 1012,7 hPa 0,0 l/m 6,5 km/h (2 Bft) W 11,5 C 19,0 C
13.06.2012 15:00 20,0 C 57 % 1012,7 hPa 0,0 l/m 6,7 km/h (2 Bft) W 11,3 C 20,0 C
13.06.2012 16:00 20,7 C 52 % 1013,0 hPa 0,0 l/m 6,8 km/h (2 Bft) W 10,4 C 20,7 C
13.06.2012 17:00 19,6 C 51 % 1013,3 hPa 0,0 l/m 5,8 km/h (2 Bft) N-NO 9,2 C 19,6 C
13.06.2012 18:00 19,1 C 52 % 1013,7 hPa 0,0 l/m 5,2 km/h (1 Bft) N 9,0 C 19,1 C
13.06.2012 19:00 18,7 C 51 % 1014,1 hPa 0,0 l/m 5,8 km/h (2 Bft) N-NO 8,3 C 18,7 C
13.06.2012 20:00 17,8 C 54 % 1014,7 hPa 0,0 l/m 2,1 km/h (1 Bft) W-NW 8,4 C 17,8 C
13.06.2012 21:00 16,0 C 57 % 1015,5 hPa 0,0 l/m 3,4 km/h (1 Bft) N-NO 7,4 C 16,0 C
13.06.2012 22:00 14,7 C 60 % 1016,1 hPa 0,0 l/m 1,1 km/h (1 Bft) N-NO 7,1 C 14,7 C
13.06.2012 23:00 13,9 C 65 % 1016,6 hPa 0,0 l/m 1,4 km/h (1 Bft) NW 7,3 C 13,9 C
14.06.2012 00:00 13,3 C 67 % 1017,3 hPa 0,0 l/m 0,8 km/h (0 Bft) NW 7,4 C 13,3 C
14.06.2012 01:00 12,7 C 70 % 1017,5 hPa 0,0 l/m 1,1 km/h (0 Bft) NW 7,3 C 12,7 C
14.06.2012 02:00 12,2 C 72 % 1017,8 hPa 0,0 l/m 1,1 km/h (0 Bft) N-NW 7,2 C 12,2 C
14.06.2012 03:00 11,8 C 73 % 1018,1 hPa 0,0 l/m 0,1 km/h (0 Bft) N-NO 7,1 C 11,8 C
14.06.2012 04:00 11,3 C 74 % 1018,2 hPa 0,0 l/m 0,6 km/h (0 Bft) NW 6,8 C 11,3 C
14.06.2012 05:00 11,5 C 75 % 1018,6 hPa 0,0 l/m 1,7 km/h (1 Bft) W-NW 7,2 C 11,5 C
14.06.2012 06:00 11,8 C 76 % 1019,0 hPa 0,0 l/m 1,7 km/h (1 Bft) W 7,6 C 11,8 C
14.06.2012 07:00 12,5 C 75 % 1019,4 hPa 0,0 l/m 3,2 km/h (1 Bft) W-NW 8,1 C 12,5 C
14.06.2012 08:00 13,6 C 74 % 1019,7 hPa 0,0 l/m 2,8 km/h (1 Bft) W-NW 9,1 C 13,6 C
14.06.2012 09:00 14,9 C 67 % 1020,2 hPa 0,0 l/m 3,6 km/h (1 Bft) W 8,8 C 14,9 C
14.06.2012 10:00 15,3 C 61 % 1020,4 hPa 0,0 l/m 3,1 km/h (1 Bft) W-NW 7,8 C 15,3 C
14.06.2012 11:00 15,2 C 59 % 1020,7 hPa 0,0 l/m 2,0 km/h (1 Bft) N 7,3 C 15,2 C
14.06.2012 12:00 16,4 C 57 % 1020,7 hPa 0,0 l/m 1,9 km/h (1 Bft) NO 8,0 C 16,4 C
14.06.2012 13:00 17,9 C 52 % 1020,7 hPa 0,0 l/m 6,3 km/h (2 Bft) W-SW 7,8 C 17,9 C
14.06.2012 14:00 18,7 C 50 % 1020,5 hPa 0,0 l/m 7,5 km/h (2 Bft) W 8,0 C 18,7 C
14.06.2012 15:00 19,2 C 48 % 1020,2 hPa 0,0 l/m 8,3 km/h (2 Bft) SW 8,0 C 19,2 C
14.06.2012 16:00 19,1 C 49 % 1020,1 hPa 0,0 l/m 7,2 km/h (2 Bft) W-SW 8,0 C 19,1 C
14.06.2012 17:00 19,1 C 49 % 1020,0 hPa 0,0 l/m 6,8 km/h (2 Bft) W-SW 8,0 C 19,1 C
14.06.2012 18:00 18,5 C 51 % 1020,2 hPa 0,0 l/m 6,4 km/h (2 Bft) S-SW 8,2 C 18,5 C
14.06.2012 19:00 18,3 C 52 % 1020,1 hPa 0,0 l/m 4,6 km/h (1 Bft) SW 8,1 C 18,3 C
14.06.2012 20:00 17,9 C 52 % 1020,2 hPa 0,0 l/m 3,0 km/h (1 Bft) SW 8,0 C 17,9 C
14.06.2012 21:00 16,5 C 57 % 1020,5 hPa 0,0 l/m 0,6 km/h (0 Bft) SW 7,9 C 16,5 C
14.06.2012 22:00 15,4 C 62 % 1020,6 hPa 0,0 l/m 0,2 km/h (0 Bft) SW 8,0 C 15,4 C
14.06.2012 23:00 14,4 C 66 % 1020,9 hPa 0,0 l/m 0,0 km/h (0 Bft) N 8,0 C 14,4 C
15.06.2012 00:00 13,5 C 70 % 1021,0 hPa 0,0 l/m 0,4 km/h (0 Bft) S-SO 8,1 C 13,5 C
15.06.2012 01:00 13,1 C 71 % 1020,9 hPa 0,0 l/m 0,3 km/h (0 Bft) S 7,9 C 13,1 C
15.06.2012 02:00 12,6 C 72 % 1020,9 hPa 0,0 l/m 0,1 km/h (0 Bft) S 7,7 C 12,6 C
15.06.2012 03:00 12,4 C 74 % 1020,8 hPa 0,0 l/m 0,6 km/h (0 Bft) SO 8,0 C 12,4 C
15.06.2012 04:00 11,6 C 76 % 1020,6 hPa 0,0 l/m 1,3 km/h (1 Bft) SO 7,6 C 11,6 C
15.06.2012 05:00 11,2 C 79 % 1020,5 hPa 0,0 l/m 2,0 km/h (1 Bft) O 7,6 C 11,2 C
15.06.2012 06:00 12,7 C 77 % 1020,3 hPa 0,0 l/m 1,7 km/h (1 Bft) O-SO 8,9 C 12,7 C
15.06.2012 07:00 14,7 C 75 % 1020,3 hPa 0,0 l/m 3,2 km/h (1 Bft) SO 10,3 C 14,7 C
15.06.2012 08:00 17,1 C 68 % 1020,2 hPa 0,0 l/m 5,9 km/h (2 Bft) SO 11,2 C 17,1 C
15.06.2012 09:00 18,7 C 61 % 1019,6 hPa 0,0 l/m 7,7 km/h (2 Bft) O-SO 11,1 C 18,7 C
15.06.2012 10:00 19,6 C 57 % 1019,3 hPa 0,0 l/m 9,1 km/h (2 Bft) SO 11,0 C 19,6 C
15.06.2012 11:00 20,6 C 55 % 1019,1 hPa 0,0 l/m 9,8 km/h (2 Bft) S 11,3 C 20,6 C
15.06.2012 12:00 21,9 C 52 % 1018,6 hPa 0,0 l/m 7,5 km/h (2 Bft) S-SO 11,7 C 21,9 C
15.06.2012 13:00 22,8 C 47 % 1018,0 hPa 0,0 l/m 12,3 km/h (3 Bft) S 11,0 C 22,8 C
15.06.2012 14:00 22,9 C 46 % 1017,5 hPa 0,0 l/m 11,0 km/h (2 Bft) SO 10,6 C 22,9 C
15.06.2012 15:00 23,0 C 45 % 1017,1 hPa 0,0 l/m 10,7 km/h (2 Bft) S-SO 10,4 C 23,0 C
15.06.2012 16:00 22,5 C 46 % 1016,8 hPa 0,0 l/m 11,4 km/h (2 Bft) S-SO 10,3 C 22,5 C
15.06.2012 17:00 21,4 C 50 % 1016,6 hPa 0,0 l/m 13,7 km/h (3 Bft) S-SO 10,5 C 21,4 C
15.06.2012 18:00 20,9 C 53 % 1016,0 hPa 0,0 l/m 4,9 km/h (1 Bft) S-SO 10,9 C 20,9 C
15.06.2012 19:00 20,0 C 60 % 1015,7 hPa 0,0 l/m 2,6 km/h (1 Bft) S-SO 11,9 C 20,0 C
15.06.2012 20:00 18,8 C 67 % 1015,5 hPa 0,0 l/m 2,1 km/h (1 Bft) SO 12,5 C 18,8 C
15.06.2012 21:00 18,5 C 69 % 1015,5 hPa 0,0 l/m 1,6 km/h (1 Bft) S-SO 12,7 C 18,5 C
15.06.2012 22:00 18,4 C 70 % 1015,7 hPa 0,0 l/m 2,2 km/h (1 Bft) W-SW 12,8 C 18,4 C
15.06.2012 23:00 18,0 C 70 % 1015,8 hPa 0,0 l/m 2,6 km/h (1 Bft) W-SW 12,5 C 18,0 C
16.06.2012 00:00 17,4 C 72 % 1016,0 hPa 0,0 l/m 1,4 km/h (1 Bft) W-SW 12,4 C 17,4 C
16.06.2012 01:00 17,4 C 74 % 1016,0 hPa 0,0 l/m 1,5 km/h (1 Bft) S-SO 12,6 C 17,4 C
16.06.2012 02:00 17,1 C 76 % 1015,7 hPa 0,0 l/m 1,9 km/h (1 Bft) S-SO 12,8 C 17,1 C
16.06.2012 03:00 16,9 C 77 % 1015,5 hPa 0,0 l/m 1,0 km/h (0 Bft) S-SO 12,8 C 16,9 C
16.06.2012 04:00 16,7 C 79 % 1015,5 hPa 0,0 l/m 1,3 km/h (1 Bft) S-SO 13,0 C 16,7 C
16.06.2012 05:00 16,5 C 81 % 1015,5 hPa 0,0 l/m 2,2 km/h (1 Bft) S-SO 13,1 C 16,5 C
16.06.2012 06:00 16,7 C 81 % 1015,7 hPa 0,0 l/m 2,1 km/h (1 Bft) S-SW 13,5 C 16,7 C
16.06.2012 07:00 17,0 C 83 % 1015,8 hPa 0,5 l/m 2,1 km/h (1 Bft) SO 14,0 C 17,0 C
16.06.2012 08:00 18,1 C 83 % 1015,7 hPa 0,0 l/m 4,1 km/h (1 Bft) S-SO 15,1 C 18,1 C
16.06.2012 09:00 19,1 C 81 % 1015,3 hPa 0,0 l/m 4,7 km/h (1 Bft) S-SO 15,7 C 19,1 C
16.06.2012 10:00 19,7 C 80 % 1015,5 hPa 0,0 l/m 3,7 km/h (1 Bft) S-SO 16,2 C 19,7 C
16.06.2012 11:00 19,9 C 80 % 1015,2 hPa 0,5 l/m 7,3 km/h (2 Bft) S-SO 16,4 C 19,9 C
16.06.2012 12:00 21,3 C 75 % 1015,0 hPa 0,0 l/m 10,2 km/h (2 Bft) S-SO 16,7 C 21,3 C
16.06.2012 13:00 21,5 C 73 % 1015,0 hPa 0,0 l/m 10,8 km/h (2 Bft) S-SW 16,4 C 21,5 C
16.06.2012 14:00 20,8 C 73 % 1015,3 hPa 0,0 l/m 12,1 km/h (2 Bft) W-SW 15,7 C 20,8 C
16.06.2012 15:00 20,3 C 75 % 1015,5 hPa 0,5 l/m 9,8 km/h (2 Bft) S-SW 15,8 C 20,3 C
16.06.2012 16:00 19,1 C 78 % 1015,9 hPa 0,5 l/m 9,3 km/h (2 Bft) W-SW 15,1 C 19,1 C
16.06.2012 17:00 18,4 C 78 % 1015,6 hPa 0,0 l/m 8,3 km/h (2 Bft) SW 14,5 C 18,4 C
16.06.2012 18:00 18,1 C 79 % 1015,7 hPa 0,0 l/m 6,9 km/h (2 Bft) W-SW 14,4 C 18,1 C
16.06.2012 19:00 17,9 C 79 % 1015,4 hPa 0,0 l/m 4,6 km/h (1 Bft) W-SW 14,2 C 17,9 C
16.06.2012 20:00 17,8 C 79 % 1015,6 hPa 0,0 l/m 3,5 km/h (1 Bft) S-SW 14,1 C 17,8 C
16.06.2012 21:00 17,6 C 78 % 1015,9 hPa 0,0 l/m 6,9 km/h (2 Bft) W-SW 13,8 C 17,6 C
16.06.2012 22:00 17,0 C 79 % 1016,3 hPa 0,5 l/m 9,8 km/h (2 Bft) W-SW 13,4 C 17,0 C
16.06.2012 23:00 16,3 C 80 % 1015,9 hPa 0,0 l/m 7,9 km/h (2 Bft) S-SO 12,8 C 16,3 C
17.06.2012 00:00 15,7 C 82 % 1016,6 hPa 0,0 l/m 5,1 km/h (1 Bft) SW 12,5 C 15,7 C
17.06.2012 01:00 15,1 C 82 % 1017,1 hPa 0,0 l/m 3,8 km/h (1 Bft) S-SW 12,0 C 15,1 C
17.06.2012 02:00 14,4 C 82 % 1017,5 hPa 0,0 l/m 5,4 km/h (1 Bft) SW 11,3 C 14,4 C
17.06.2012 03:00 13,8 C 82 % 1017,7 hPa 0,0 l/m 3,8 km/h (1 Bft) S-SW 10,7 C 13,8 C
17.06.2012 04:00 13,3 C 82 % 1018,0 hPa 0,0 l/m 5,5 km/h (1 Bft) S-SW 10,3 C 13,3 C
17.06.2012 05:00 13,2 C 83 % 1018,5 hPa 0,0 l/m 3,8 km/h (1 Bft) SW 10,4 C 13,2 C
17.06.2012 06:00 15,3 C 78 % 1018,9 hPa 0,0 l/m 10,9 km/h (2 Bft) S-SW 11,4 C 15,3 C
17.06.2012 07:00 15,5 C 78 % 1019,6 hPa 0,0 l/m 6,3 km/h (2 Bft) S-SW 11,7 C 15,5 C
17.06.2012 08:00 17,0 C 75 % 1020,1 hPa 0,0 l/m 9,4 km/h (2 Bft) S-SW 12,5 C 17,0 C
17.06.2012 09:00 18,5 C 70 % 1020,7 hPa 0,0 l/m 16,9 km/h (3 Bft) W 13,0 C 18,5 C
17.06.2012 10:00 19,1 C 67 % 1020,9 hPa 0,0 l/m 12,9 km/h (3 Bft) S-SW 12,8 C 19,1 C
17.06.2012 11:00 20,3 C 61 % 1021,2 hPa 0,0 l/m 18,3 km/h (3 Bft) W-SW 12,5 C 20,3 C
17.06.2012 12:00 21,9 C 52 % 1021,4 hPa 0,0 l/m 18,2 km/h (3 Bft) W-SW 11,6 C 21,9 C
17.06.2012 13:00 22,1 C 48 % 1021,5 hPa 0,0 l/m 9,7 km/h (2 Bft) W-SW 10,7 C 22,1 C
17.06.2012 14:00 22,2 C 49 % 1021,6 hPa 0,0 l/m 14,5 km/h (3 Bft) W-SW 10,9 C 22,2 C
17.06.2012 15:00 22,9 C 47 % 1021,8 hPa 0,0 l/m 12,7 km/h (3 Bft) W-SW 11,0 C 22,9 C
17.06.2012 16:00 23,5 C 43 % 1021,8 hPa 0,0 l/m 10,8 km/h (2 Bft) W-SW 10,1 C 23,5 C
17.06.2012 17:00 23,1 C 43 % 1021,9 hPa 0,0 l/m 8,3 km/h (2 Bft) W 9,8 C 23,1 C
17.06.2012 18:00 23,2 C 44 % 1021,9 hPa 0,0 l/m 8,0 km/h (2 Bft) W-SW 10,1 C 23,2 C
17.06.2012 19:00 22,9 C 45 % 1022,1 hPa 0,0 l/m 3,4 km/h (1 Bft) W 10,4 C 22,9 C
17.06.2012 20:00 22,4 C 48 % 1022,2 hPa 0,0 l/m 0,8 km/h (0 Bft) W-SW 10,8 C 22,4 C
17.06.2012 21:00 20,5 C 55 % 1022,4 hPa 0,0 l/m 0,0 km/h (0 Bft) N 11,0 C 20,5 C
17.06.2012 22:00 18,6 C 60 % 1022,6 hPa 0,0 l/m 0,0 km/h (0 Bft) N 10,8 C 18,6 C
17.06.2012 23:00 17,2 C 64 % 1022,5 hPa 0,0 l/m 1,0 km/h (0 Bft) O 10,4 C 17,2 C
Min-Datum _ 15.06.12 11.06.12 12.06.12 - 11.06.12 - 14.06.12 15.06.12
_ Min-Zeit 05:46 15:56 05:21 - 00:01 - 04:16 05:46
Minimum _ 10,9 C 41 % 1002,5 hPa - 0,0 km/h (0 Bft) - 6,4 C 10,9 C
Max-Datum _ 17.06.12 13.06.12 17.06.12 12.06.12 17.06.12 - 16.06.12 17.06.12
_ Max-Zeit 16:36 05:51 22:01 13:16 12:26 - 12:36 16:36
Maximum _ 23,9 C 87 % 1022,6 hPa 15,5 l/m 30,2 km/h
W-SW (5 Bft)
- 17,2 C 23,9 C
Durchschnitt _ 17,4 C 66 % 1013,4 hPa #38,9 l/m 4,6 km/h (1 Bft) W-SW 10,7 C 17,4 C
(c) by David Heller